New Lisbon, New York
Current Conditions -  °F | °C
As of 9:24 AM on Thursday 30 Oct 2014 (Local Time) from KRME Reporting Station
Overcast Overcast  
Wind Chill: 40°   Ceiling: 4200
Heat Index: 44°   Visibility: 10mi
Dew Point: 42°   Wind: 7mph
Humidity: 93%   Direction: 270°W
Pressure: 30.02"   Gusts: NA
Location:  42.59°N, 75.18°W
Report Text: KRME 301324Z 27006KT 10SM FEW010 SCT014 OVC042 07/06 A3002 RMK AO2 T00670056
Loading
Personal Weather Stations






























Interactive Weather Map
Tropical Storm Tracking
New forecast layout! Learn more

10-Day Weather Forecast

Advertisements
Track Severe Weather on mobile